createdAt,value
2019-01-12T00:01:17.541Z,95186.30
2019-01-12T00:03:49.047Z,95170.66
2019-01-12T00:06:20.453Z,95158.34
2019-01-12T00:08:51.877Z,95153.71
2019-01-12T00:11:23.197Z,95160.97
2019-01-12T00:13:54.638Z,95167.03
2019-01-12T00:16:25.998Z,95186.02
2019-01-12T00:18:57.310Z,95195.17
2019-01-12T00:21:28.655Z,95193.43
2019-01-12T00:24:00.089Z,95185.61
2019-01-12T00:26:31.481Z,95176.02
2019-01-12T00:29:02.856Z,95183.47
2019-01-12T00:31:33.957Z,95183.30
2019-01-12T00:34:05.447Z,95177.50
2019-01-12T00:36:36.764Z,95179.52
2019-01-12T00:39:09.375Z,95178.86
2019-01-12T00:41:40.800Z,95179.77
2019-01-12T00:44:12.056Z,95170.29
2019-01-12T00:46:43.321Z,95172.22
2019-01-12T00:49:14.412Z,95165.77
2019-01-12T00:51:45.526Z,95167.00
2019-01-12T00:54:16.639Z,95158.30
2019-01-12T00:56:47.677Z,95152.48
2019-01-12T00:59:18.868Z,95148.05
2019-01-12T01:01:49.916Z,95152.12
2019-01-12T01:04:21.068Z,95150.76
2019-01-12T01:06:52.149Z,95143.31
2019-01-12T01:09:23.324Z,95139.10
2019-01-12T01:11:54.823Z,95143.02
2019-01-12T01:14:26.055Z,95148.78
2019-01-12T01:16:57.475Z,95153.31
2019-01-12T01:19:28.611Z,95151.92
2019-01-12T01:21:59.681Z,95147.23
2019-01-12T01:24:31.273Z,95146.49
2019-01-12T01:27:02.623Z,95148.63
2019-01-12T01:29:33.719Z,95152.91
2019-01-12T01:32:05.183Z,95145.70
2019-01-12T01:34:36.261Z,95152.78
2019-01-12T01:37:08.686Z,95145.95
2019-01-12T01:39:39.938Z,95151.64
2019-01-12T01:42:11.226Z,95149.86
2019-01-12T01:44:42.620Z,95147.09
2019-01-12T01:47:13.823Z,95137.80
2019-01-12T01:49:45.068Z,95134.30
2019-01-12T01:52:16.290Z,95135.33
2019-01-12T01:54:52.788Z,95128.75
2019-01-12T01:57:20.806Z,95133.09
2019-01-12T01:59:51.908Z,95127.75
2019-01-12T02:02:23.223Z,95125.53
2019-01-12T02:04:54.492Z,95116.85
2019-01-12T02:07:25.594Z,95122.08
2019-01-12T02:09:58.029Z,95122.31
2019-01-12T02:12:29.531Z,95122.61
2019-01-12T02:15:00.846Z,95121.21
2019-01-12T02:17:32.036Z,95119.61
2019-01-12T02:20:03.194Z,95119.20
2019-01-12T02:22:34.608Z,95112.20
2019-01-12T02:25:06.715Z,95103.09
2019-01-12T02:27:38.118Z,95116.52
2019-01-12T02:30:13.944Z,95107.37
2019-01-12T02:32:45.008Z,95110.44
2019-01-12T02:35:16.407Z,95104.13
2019-01-12T02:37:47.845Z,95102.11
2019-01-12T02:40:19.202Z,95103.70
2019-01-12T02:42:50.809Z,95104.45
2019-01-12T02:45:22.322Z,95100.67
2019-01-12T02:47:54.798Z,95092.41
2019-01-12T02:50:26.141Z,95094.75
2019-01-12T02:52:57.433Z,95085.53
2019-01-12T02:55:28.677Z,95086.60
2019-01-12T02:58:00.065Z,95079.80
2019-01-12T03:00:31.434Z,95087.75
2019-01-12T03:03:02.765Z,95082.20
2019-01-12T03:05:33.979Z,95084.37
2019-01-12T03:08:05.845Z,95077.76
2019-01-12T03:10:37.193Z,95074.46
2019-01-12T03:13:08.466Z,95061.13
2019-01-12T03:15:39.773Z,95056.03
2019-01-12T03:18:11.176Z,95056.77
2019-01-12T03:20:42.626Z,95050.84
2019-01-12T03:23:13.949Z,95045.21
2019-01-12T03:25:45.104Z,95038.22
2019-01-12T03:28:16.413Z,95041.67
2019-01-12T03:30:47.718Z,95040.56
2019-01-12T03:33:19.115Z,95033.36
2019-01-12T03:35:50.260Z,95033.56
2019-01-12T03:38:21.643Z,95030.20
2019-01-12T03:40:53.090Z,95030.97
2019-01-12T03:43:24.208Z,95025.92
2019-01-12T03:45:55.752Z,95038.63
2019-01-12T03:48:26.819Z,95042.45
2019-01-12T03:50:58.331Z,95043.47
2019-01-12T03:53:29.643Z,95034.75
2019-01-12T03:56:00.929Z,95021.55
2019-01-12T03:58:32.102Z,95026.11
2019-01-12T04:01:03.479Z,95024.29
2019-01-12T04:03:34.979Z,95027.78
2019-01-12T04:06:06.342Z,95031.61
2019-01-12T04:08:37.767Z,95025.98
2019-01-12T04:11:08.893Z,95028.23
2019-01-12T04:13:40.207Z,95022.80
2019-01-12T04:16:11.684Z,95031.63
2019-01-12T04:18:42.949Z,95030.48
2019-01-12T04:21:14.279Z,95028.27
2019-01-12T04:23:45.686Z,95023.05
2019-01-12T04:26:16.851Z,95025.89
2019-01-12T04:28:47.971Z,95022.23
2019-01-12T04:31:19.263Z,95028.48
2019-01-12T04:33:50.536Z,95033.80
2019-01-12T04:36:21.830Z,95033.23
2019-01-12T04:38:53.983Z,95027.73
2019-01-12T04:41:25.087Z,95028.12
2019-01-12T04:43:56.389Z,95026.41
2019-01-12T04:46:27.915Z,95029.98
2019-01-12T04:48:59.182Z,95032.28
2019-01-12T04:51:30.605Z,95034.13
2019-01-12T04:54:01.770Z,95026.45
2019-01-12T04:56:33.101Z,95030.10
2019-01-12T04:59:04.399Z,95026.48
2019-01-12T05:01:35.666Z,95026.94
2019-01-12T05:04:06.938Z,95022.58
2019-01-12T05:06:38.321Z,95030.72
2019-01-12T05:09:10.056Z,95024.18
2019-01-12T05:11:41.337Z,95034.55
2019-01-12T05:14:12.707Z,95037.34
2019-01-12T05:16:44.147Z,95032.78
2019-01-12T05:19:15.219Z,95033.45
2019-01-12T05:21:46.323Z,95032.46
2019-01-12T05:24:17.443Z,95037.52
2019-01-12T05:26:48.593Z,95032.79
2019-01-12T05:29:19.672Z,95033.45
2019-01-12T05:31:50.888Z,95032.42
2019-01-12T05:34:22.069Z,95044.76
2019-01-12T05:36:53.403Z,95046.60
2019-01-12T05:39:24.502Z,95052.33
2019-01-12T05:41:55.927Z,95051.25
2019-01-12T05:44:26.988Z,95049.45
2019-01-12T05:46:58.580Z,95047.39
2019-01-12T05:49:29.603Z,95049.44
2019-01-12T05:52:01.049Z,95055.91
2019-01-12T05:54:32.453Z,95052.31
2019-01-12T05:57:03.862Z,95044.92
2019-01-12T05:59:35.142Z,95054.17
2019-01-12T06:02:06.616Z,95053.72
2019-01-12T06:04:37.992Z,95044.63
2019-01-12T06:07:09.538Z,95049.98
2019-01-12T06:09:40.614Z,95053.97
2019-01-12T06:12:12.191Z,95042.58
2019-01-12T06:14:43.658Z,95038.22
2019-01-12T06:17:15.098Z,95040.06
2019-01-12T06:19:46.366Z,95042.53
2019-01-12T06:22:17.782Z,95035.01
2019-01-12T06:24:49.102Z,95047.02
2019-01-12T06:27:20.435Z,95048.58
2019-01-12T06:29:51.659Z,95051.42
2019-01-12T06:32:23.100Z,95049.61
2019-01-12T06:34:54.427Z,95046.56
2019-01-12T06:37:25.895Z,95045.83
2019-01-12T06:39:57.237Z,95042.91
2019-01-12T06:42:29.033Z,95055.37
2019-01-12T06:45:00.551Z,95048.70
2019-01-12T06:47:32.830Z,95049.68
2019-01-12T06:50:04.794Z,95053.00
2019-01-12T06:52:36.035Z,95055.34
2019-01-12T06:55:08.543Z,95051.61
2019-01-12T06:57:39.944Z,95043.48
2019-01-12T07:00:14.326Z,95046.35
2019-01-12T07:02:45.706Z,95048.43
2019-01-12T07:05:17.265Z,95051.20
2019-01-12T07:07:48.551Z,95048.06
2019-01-12T07:10:20.014Z,95041.22
2019-01-12T07:12:51.427Z,95037.18
2019-01-12T07:15:22.640Z,95041.41
2019-01-12T07:17:54.277Z,95051.52
2019-01-12T07:20:25.618Z,95053.34
2019-01-12T07:22:57.981Z,95049.31
2019-01-12T07:25:29.586Z,95051.66
2019-01-12T07:28:01.091Z,95044.50
2019-01-12T07:30:32.596Z,95043.94
2019-01-12T07:33:04.242Z,95052.89
2019-01-12T07:35:35.637Z,95056.03
2019-01-12T07:38:07.177Z,95054.81
2019-01-12T07:40:38.461Z,95054.05
2019-01-12T07:43:09.724Z,95041.89
2019-01-12T07:45:41.220Z,95054.59
2019-01-12T07:48:12.390Z,95054.00
2019-01-12T07:50:43.582Z,95067.38
2019-01-12T07:53:14.883Z,95058.67
2019-01-12T07:55:46.279Z,95061.46
2019-01-12T07:58:17.419Z,95067.84
2019-01-12T08:00:48.725Z,95069.42
2019-01-12T08:03:20.117Z,95074.36
2019-01-12T08:05:51.587Z,95064.59
2019-01-12T08:08:23.001Z,95062.03
2019-01-12T08:10:54.350Z,95063.69
2019-01-12T08:13:26.006Z,95061.58
2019-01-12T08:15:57.421Z,95060.63
2019-01-12T08:18:28.567Z,95055.43
2019-01-12T08:20:59.868Z,95061.36
2019-01-12T08:23:31.153Z,95063.17
2019-01-12T08:26:02.666Z,95058.17
2019-01-12T08:28:33.948Z,95056.62
2019-01-12T08:31:05.169Z,95060.94
2019-01-12T08:33:36.750Z,95069.95
2019-01-12T08:36:08.185Z,95068.02
2019-01-12T08:38:39.722Z,95064.63
2019-01-12T08:41:11.090Z,95063.05
2019-01-12T08:43:42.542Z,95075.09
2019-01-12T08:46:13.968Z,95079.13
2019-01-12T08:48:45.608Z,95082.36
2019-01-12T08:51:17.068Z,95083.02
2019-01-12T08:53:48.574Z,95072.45
2019-01-12T08:56:19.899Z,95072.90
2019-01-12T08:58:51.294Z,95068.42
2019-01-12T09:01:23.037Z,95075.36
2019-01-12T09:03:54.166Z,95064.14
2019-01-12T09:06:25.338Z,95057.38
2019-01-12T09:08:56.773Z,95062.87
2019-01-12T09:11:27.892Z,95046.34
2019-01-12T09:13:59.223Z,95050.66
2019-01-12T09:16:30.538Z,95034.43
2019-01-12T09:19:01.818Z,95025.39
2019-01-12T09:21:33.290Z,95016.66
2019-01-12T09:24:04.892Z,95010.50
2019-01-12T09:26:36.224Z,95009.41
2019-01-12T09:29:07.554Z,95002.82
2019-01-12T09:31:38.956Z,94997.03
2019-01-12T09:34:10.179Z,95000.15
2019-01-12T09:36:41.510Z,94991.00
2019-01-12T09:39:12.977Z,94984.91
2019-01-12T09:41:44.221Z,94981.34
2019-01-12T09:44:15.318Z,94980.50
2019-01-12T09:46:46.611Z,94983.09
2019-01-12T09:49:17.802Z,94983.42
2019-01-12T09:51:49.296Z,94988.00
2019-01-12T09:54:20.694Z,94976.23
2019-01-12T09:56:52.020Z,94975.59
2019-01-12T09:59:23.229Z,94965.73
2019-01-12T10:01:54.356Z,94966.17
2019-01-12T10:04:25.786Z,94966.98
2019-01-12T10:06:57.204Z,94972.33
2019-01-12T10:09:28.611Z,94962.91
2019-01-12T10:11:59.828Z,94965.02
2019-01-12T10:14:31.217Z,94963.00
2019-01-12T10:17:02.417Z,94945.05
2019-01-12T10:19:33.644Z,94957.33
2019-01-12T10:22:05.314Z,94951.08
2019-01-12T10:24:36.460Z,94949.39
2019-01-12T10:27:07.920Z,94946.47
2019-01-12T10:29:39.273Z,94950.97
2019-01-12T10:32:10.474Z,94942.47
2019-01-12T10:34:41.742Z,94943.38
2019-01-12T10:37:12.843Z,94941.84
2019-01-12T10:39:44.502Z,94935.92
2019-01-12T10:42:15.521Z,94927.98
2019-01-12T10:44:47.067Z,94929.23
2019-01-12T10:47:18.485Z,94916.21
2019-01-12T10:49:49.744Z,94925.18
2019-01-12T10:52:20.969Z,94936.61
2019-01-12T10:54:52.538Z,94926.69
2019-01-12T10:57:24.660Z,94929.97
2019-01-12T10:59:56.005Z,94932.44
2019-01-12T11:02:27.262Z,94933.55
2019-01-12T11:04:58.784Z,94926.53
2019-01-12T11:07:29.843Z,94926.17
2019-01-12T11:10:04.348Z,94920.67
2019-01-12T11:12:34.205Z,94919.68
2019-01-12T11:15:06.343Z,94917.19
2019-01-12T11:17:37.481Z,94913.72
2019-01-12T11:20:09.257Z,94906.70
2019-01-12T11:22:41.124Z,94905.94
2019-01-12T11:25:13.442Z,94901.94
2019-01-12T11:27:45.018Z,94901.39
2019-01-12T11:30:18.121Z,94895.63
2019-01-12T11:32:49.788Z,94907.53
2019-01-12T11:35:21.227Z,94900.66
2019-01-12T11:37:52.714Z,94901.28
2019-01-12T11:40:24.126Z,94892.14
2019-01-12T11:42:55.493Z,94888.28
2019-01-12T11:45:27.993Z,94886.73
2019-01-12T11:47:59.359Z,94886.56
2019-01-12T11:50:30.955Z,94884.20
2019-01-12T11:53:02.303Z,94882.36
2019-01-12T11:55:33.950Z,94869.38
2019-01-12T11:58:05.644Z,94872.27
2019-01-12T12:00:36.996Z,94862.77
2019-01-12T12:03:08.555Z,94858.05
2019-01-12T12:05:40.069Z,94866.41
2019-01-12T12:08:11.450Z,94862.13
2019-01-12T12:10:42.891Z,94858.28
2019-01-12T12:13:14.324Z,94852.44
2019-01-12T12:15:45.739Z,94854.43
2019-01-12T12:18:17.074Z,94853.88
2019-01-12T12:20:48.479Z,94854.84
2019-01-12T12:23:19.929Z,94848.16
2019-01-12T12:25:51.389Z,94840.50
2019-01-12T12:28:22.612Z,94845.39
2019-01-12T12:30:53.723Z,94846.48
2019-01-12T12:33:25.053Z,94837.84
2019-01-12T12:35:56.538Z,94837.13
2019-01-12T12:38:27.931Z,94844.00
2019-01-12T12:40:59.341Z,94845.84
2019-01-12T12:43:30.683Z,94840.37
2019-01-12T12:46:01.858Z,94840.54
2019-01-12T12:48:33.533Z,94843.58
2019-01-12T12:51:05.166Z,94843.72
2019-01-12T12:53:36.505Z,94843.92
2019-01-12T12:56:08.116Z,94845.23
2019-01-12T12:58:39.583Z,94839.13
2019-01-12T13:01:11.038Z,94844.18
2019-01-12T13:03:42.540Z,94845.47
2019-01-12T13:06:14.204Z,94839.59
2019-01-12T13:08:48.569Z,94832.46
2019-01-12T13:11:18.461Z,94832.92
2019-01-12T13:13:49.893Z,94835.75
2019-01-12T13:16:21.024Z,94842.61
2019-01-12T13:18:52.666Z,94844.16
2019-01-12T13:21:24.149Z,94842.91
2019-01-12T13:23:55.522Z,94837.06
2019-01-12T13:26:26.907Z,94841.70
2019-01-12T13:28:58.476Z,94836.11
2019-01-12T13:31:29.972Z,94843.03
2019-01-12T13:34:01.227Z,94847.59
2019-01-12T13:36:32.421Z,94849.33
2019-01-12T13:39:03.974Z,94844.11
2019-01-12T13:41:36.258Z,94843.89
2019-01-12T13:44:07.457Z,94847.39
2019-01-12T13:46:38.802Z,94844.45
2019-01-12T13:49:10.261Z,94846.66
2019-01-12T13:51:41.745Z,94850.60
2019-01-12T13:54:13.204Z,94847.58
2019-01-12T13:56:44.433Z,94844.97
2019-01-12T13:59:15.728Z,94850.17
2019-01-12T14:01:46.989Z,94854.81
2019-01-12T14:04:18.130Z,94853.22
2019-01-12T14:06:49.444Z,94847.64
2019-01-12T14:09:22.307Z,94856.64
2019-01-12T14:11:53.784Z,94856.47
2019-01-12T14:14:24.939Z,94860.66
2019-01-12T14:16:56.397Z,94864.83
2019-01-12T14:19:27.775Z,94863.09
2019-01-12T14:21:58.890Z,94867.45
2019-01-12T14:24:30.274Z,94865.47
2019-01-12T14:27:01.554Z,94864.86
2019-01-12T14:29:32.808Z,94863.17
2019-01-12T14:32:04.056Z,94857.02
2019-01-12T14:34:35.142Z,94861.13
2019-01-12T14:37:06.770Z,94861.66
2019-01-12T14:39:37.909Z,94859.55
2019-01-12T14:42:09.032Z,94863.17
2019-01-12T14:44:40.186Z,94864.27
2019-01-12T14:47:11.502Z,94857.30
2019-01-12T14:49:42.559Z,94861.28
2019-01-12T14:52:14.061Z,94855.70
2019-01-12T14:54:45.431Z,94858.80
2019-01-12T14:57:16.836Z,94860.27
2019-01-12T14:59:47.915Z,94853.47
2019-01-12T15:02:19.111Z,94861.13
2019-01-12T15:04:50.557Z,94861.09
2019-01-12T15:07:21.940Z,94862.09
2019-01-12T15:09:53.014Z,94861.16
2019-01-12T15:12:24.147Z,94863.48
2019-01-12T15:14:55.625Z,94861.98
2019-01-12T15:17:26.873Z,94863.97
2019-01-12T15:19:58.263Z,94868.59
2019-01-12T15:22:29.398Z,94871.00
2019-01-12T15:25:00.787Z,94871.36
2019-01-12T15:27:32.281Z,94878.75
2019-01-12T15:30:04.246Z,94870.27
2019-01-12T15:32:35.640Z,94871.09
2019-01-12T15:35:06.963Z,94879.20
2019-01-12T15:37:38.399Z,94878.61
2019-01-12T15:40:11.407Z,94878.56
2019-01-12T15:42:42.909Z,94876.23
2019-01-12T15:45:17.306Z,94873.77
2019-01-12T15:47:48.524Z,94879.48
2019-01-12T15:50:21.460Z,94881.13
2019-01-12T15:52:52.774Z,94884.44
2019-01-12T15:55:24.515Z,94881.58
2019-01-12T15:57:55.971Z,94880.61
2019-01-12T16:00:28.782Z,94882.25
2019-01-12T16:03:00.166Z,94889.77
2019-01-12T16:05:31.849Z,94890.44
2019-01-12T16:08:03.192Z,94893.83
2019-01-12T16:10:34.346Z,94889.38
2019-01-12T16:13:05.946Z,94892.54
2019-01-12T16:15:37.206Z,94900.11
2019-01-12T16:18:08.494Z,94899.28
2019-01-12T16:20:43.206Z,94905.98
2019-01-12T16:23:15.017Z,94908.73
2019-01-12T16:25:46.354Z,94911.37
2019-01-12T16:28:23.276Z,94919.47
2019-01-12T16:30:50.845Z,94915.72
2019-01-12T16:33:22.066Z,94909.41
2019-01-12T16:35:53.422Z,94910.53
2019-01-12T16:38:24.983Z,94898.23
2019-01-12T16:40:56.145Z,94912.70
2019-01-12T16:43:27.600Z,94917.00
2019-01-12T16:45:59.189Z,94911.95
2019-01-12T16:48:30.633Z,94915.11
2019-01-12T16:51:02.081Z,94916.77
2019-01-12T16:53:33.390Z,94919.33
2019-01-12T16:56:04.537Z,94914.83
2019-01-12T16:58:35.983Z,94915.56
2019-01-12T17:01:07.384Z,94916.01
2019-01-12T17:03:38.530Z,94902.59
2019-01-12T17:06:10.022Z,94907.08
2019-01-12T17:08:41.345Z,94905.20
2019-01-12T17:11:12.790Z,94906.58
2019-01-12T17:13:44.385Z,94905.81
2019-01-12T17:16:15.988Z,94909.28
2019-01-12T17:18:47.384Z,94901.46
2019-01-12T17:21:18.634Z,94907.69
2019-01-12T17:23:49.751Z,94911.45
2019-01-12T17:26:21.174Z,94899.06
2019-01-12T17:28:52.311Z,94906.05
2019-01-12T17:31:23.666Z,94907.39
2019-01-12T17:33:55.130Z,94906.84
2019-01-12T17:36:26.364Z,94895.91
2019-01-12T17:38:57.811Z,94905.94
2019-01-12T17:41:29.169Z,94905.87
2019-01-12T17:44:00.647Z,94909.61
2019-01-12T17:46:32.054Z,94900.03
2019-01-12T17:49:03.493Z,94906.98
2019-01-12T17:51:34.605Z,94902.52
2019-01-12T17:54:06.309Z,94904.08
2019-01-12T17:56:37.410Z,94916.02
2019-01-12T17:59:08.793Z,94903.05
2019-01-12T18:01:40.355Z,94912.81
2019-01-12T18:04:11.743Z,94916.23
2019-01-12T18:06:43.148Z,94912.51
2019-01-12T18:09:14.497Z,94910.61
2019-01-12T18:11:45.956Z,94907.69
2019-01-12T18:14:18.052Z,94903.48
2019-01-12T18:16:49.120Z,94904.69
2019-01-12T18:19:21.316Z,94909.58
2019-01-12T18:21:52.430Z,94910.99
2019-01-12T18:24:23.771Z,94906.41
2019-01-12T18:26:54.933Z,94910.52
2019-01-12T18:29:26.351Z,94898.75
2019-01-12T18:31:57.436Z,94906.34
2019-01-12T18:34:28.906Z,94905.66
2019-01-12T18:37:00.005Z,94905.60
2019-01-12T18:39:31.459Z,94899.88
2019-01-12T18:42:03.149Z,94898.46
2019-01-12T18:44:34.435Z,94893.42
2019-01-12T18:47:05.711Z,94891.32
2019-01-12T18:49:36.954Z,94888.48
2019-01-12T18:52:08.225Z,94891.40
2019-01-12T18:54:39.737Z,94889.89
2019-01-12T18:57:11.048Z,94885.11
2019-01-12T18:59:42.300Z,94884.88
2019-01-12T19:02:13.678Z,94879.10
2019-01-12T19:04:45.125Z,94881.05
2019-01-12T19:07:16.442Z,94881.66
2019-01-12T19:09:47.810Z,94879.30
2019-01-12T19:12:19.006Z,94879.70
2019-01-12T19:14:50.548Z,94878.25
2019-01-12T19:17:21.612Z,94878.84
2019-01-12T19:19:52.754Z,94874.81
2019-01-12T19:22:24.231Z,94881.79
2019-01-12T19:24:55.707Z,94882.78
2019-01-12T19:27:26.941Z,94883.83
2019-01-12T19:29:58.179Z,94884.96
2019-01-12T19:32:29.252Z,94879.86
2019-01-12T19:35:00.385Z,94882.70
2019-01-12T19:37:31.529Z,94882.78
2019-01-12T19:40:02.740Z,94881.66
2019-01-12T19:42:34.071Z,94881.70
2019-01-12T19:45:06.370Z,94890.44
2019-01-12T19:47:37.901Z,94887.63
2019-01-12T19:50:11.309Z,94877.14
2019-01-12T19:52:42.556Z,94878.02
2019-01-12T19:55:13.958Z,94884.03
2019-01-12T19:57:45.027Z,94879.02
2019-01-12T20:00:21.730Z,94884.20
2019-01-12T20:02:53.049Z,94882.36
2019-01-12T20:05:24.457Z,94877.88
2019-01-12T20:07:56.553Z,94877.79
2019-01-12T20:10:27.879Z,94876.29
2019-01-12T20:12:59.285Z,94875.61
2019-01-12T20:15:30.679Z,94876.60
2019-01-12T20:18:01.734Z,94871.69
2019-01-12T20:20:32.942Z,94868.77
2019-01-12T20:23:04.376Z,94875.88
2019-01-12T20:25:35.938Z,94872.69
2019-01-12T20:28:10.624Z,94866.26
2019-01-12T20:31:12.942Z,94863.47
2019-01-12T20:34:29.235Z,94860.93
2019-01-12T20:37:49.207Z,94854.50
2019-01-12T20:41:00.681Z,94844.92
2019-01-12T20:44:09.604Z,94851.56
2019-01-12T20:47:22.029Z,94842.67
2019-01-12T20:50:27.480Z,94844.59
2019-01-12T20:53:24.715Z,94838.61
2019-01-12T20:56:16.252Z,94831.77
2019-01-12T20:59:09.817Z,94828.80
2019-01-12T21:02:05.671Z,94829.75
2019-01-12T21:05:22.459Z,94826.89
2019-01-12T21:08:34.529Z,94823.37
2019-01-12T21:11:32.453Z,94823.03
2019-01-12T21:14:33.243Z,94813.05
2019-01-12T21:17:12.379Z,94814.58
2019-01-12T21:19:47.986Z,94810.34
2019-01-12T21:22:16.313Z,94815.83
2019-01-12T21:24:47.741Z,94809.74
2019-01-12T21:27:19.245Z,94815.16
2019-01-12T21:29:50.887Z,94811.98
2019-01-12T21:32:22.248Z,94813.78
2019-01-12T21:34:53.524Z,94810.82
2019-01-12T21:37:24.923Z,94807.67
2019-01-12T21:39:56.440Z,94807.34
2019-01-12T21:42:27.856Z,94804.30
2019-01-12T21:44:59.064Z,94805.64
2019-01-12T21:47:30.375Z,94804.95
2019-01-12T21:50:01.817Z,94806.23
2019-01-12T21:52:33.007Z,94803.08
2019-01-12T21:55:04.771Z,94794.93
2019-01-12T21:57:37.272Z,94802.46
2019-01-12T22:00:11.851Z,94801.66
2019-01-12T22:02:43.126Z,94797.91
2019-01-12T22:05:14.758Z,94797.97
2019-01-12T22:07:46.080Z,94795.41
2019-01-12T22:10:19.287Z,94790.80
2019-01-12T22:12:50.621Z,94788.25
2019-01-12T22:15:22.021Z,94788.84
2019-01-12T22:17:53.310Z,94781.53
2019-01-12T22:20:24.800Z,94777.12
2019-01-12T22:22:56.209Z,94774.30
2019-01-12T22:25:27.598Z,94776.95
2019-01-12T22:27:59.110Z,94767.36
2019-01-12T22:30:30.385Z,94767.44
2019-01-12T22:33:01.811Z,94769.74
2019-01-12T22:35:33.219Z,94766.69
2019-01-12T22:38:04.609Z,94772.36
2019-01-12T22:40:35.900Z,94762.24
2019-01-12T22:43:07.358Z,94755.89
2019-01-12T22:45:38.521Z,94755.07
2019-01-12T22:48:10.014Z,94754.05
2019-01-12T22:50:41.163Z,94747.45
2019-01-12T22:53:12.406Z,94750.84
2019-01-12T22:55:43.860Z,94748.93
2019-01-12T22:58:15.231Z,94760.13
2019-01-12T23:01:06.943Z,94748.17
2019-01-12T23:03:38.570Z,94748.07
2019-01-12T23:06:09.825Z,94745.23
2019-01-12T23:08:41.155Z,94743.31
2019-01-12T23:11:12.649Z,94742.58
2019-01-12T23:13:44.077Z,94736.00
2019-01-12T23:16:15.559Z,94739.67
2019-01-12T23:18:47.066Z,94730.17
2019-01-12T23:21:18.261Z,94736.56
2019-01-12T23:23:49.558Z,94729.85
2019-01-12T23:26:20.745Z,94721.05
2019-01-12T23:28:52.226Z,94730.17
2019-01-12T23:31:23.541Z,94731.09
2019-01-12T23:33:54.901Z,94733.28
2019-01-12T23:36:26.410Z,94735.84
2019-01-12T23:38:57.879Z,94737.16
2019-01-12T23:41:29.073Z,94738.25
2019-01-12T23:44:00.431Z,94736.04
2019-01-12T23:46:31.844Z,94735.78
2019-01-12T23:49:03.306Z,94730.84
2019-01-12T23:51:34.697Z,94729.85
2019-01-12T23:54:06.020Z,94717.88
2019-01-12T23:56:37.053Z,94721.55
2019-01-12T23:59:08.415Z,94714.23
